sensor_id;sensor_type;location;lat;lon;timestamp;temperature;humidity
25504;DHT22;13410;52.114;5.718;2023-03-01T00:01:23;3.20;99.90
25504;DHT22;13410;52.114;5.718;2023-03-01T00:03:49;3.20;99.90
25504;DHT22;13410;52.114;5.718;2023-03-01T00:06:15;3.30;99.90
25504;DHT22;13410;52.114;5.718;2023-03-01T00:08:41;3.20;99.90
25504;DHT22;13410;52.114;5.718;2023-03-01T00:11:14;3.30;99.90
25504;DHT22;13410;52.114;5.718;2023-03-01T00:13:41;3.20;99.90
25504;DHT22;13410;52.114;5.718;2023-03-01T00:16:10;3.20;99.90
25504;DHT22;13410;52.114;5.718;2023-03-01T00:18:36;3.20;99.90
25504;DHT22;13410;52.114;5.718;2023-03-01T00:21:01;3.20;99.90
25504;DHT22;13410;52.114;5.718;2023-03-01T00:23:27;3.20;99.90
25504;DHT22;13410;52.114;5.718;2023-03-01T00:25:53;3.20;99.90
25504;DHT22;13410;52.114;5.718;2023-03-01T00:28:19;3.20;99.90
25504;DHT22;13410;52.114;5.718;2023-03-01T00:30:46;3.10;99.90
25504;DHT22;13410;52.114;5.718;2023-03-01T00:33:12;3.10;99.90
25504;DHT22;13410;52.114;5.718;2023-03-01T00:35:37;3.10;99.90
25504;DHT22;13410;52.114;5.718;2023-03-01T00:38:03;3.00;99.90
25504;DHT22;13410;52.114;5.718;2023-03-01T00:40:31;2.70;99.90
25504;DHT22;13410;52.114;5.718;2023-03-01T00:42:57;2.70;99.90
25504;DHT22;13410;52.114;5.718;2023-03-01T00:45:22;2.80;99.90
25504;DHT22;13410;52.114;5.718;2023-03-01T00:47:49;2.90;99.90
25504;DHT22;13410;52.114;5.718;2023-03-01T00:50:15;2.90;99.90
25504;DHT22;13410;52.114;5.718;2023-03-01T00:52:40;2.90;99.90
25504;DHT22;13410;52.114;5.718;2023-03-01T00:55:06;2.80;99.90
25504;DHT22;13410;52.114;5.718;2023-03-01T00:57:32;2.70;99.90
25504;DHT22;13410;52.114;5.718;2023-03-01T00:59:58;2.70;99.90
25504;DHT22;13410;52.114;5.718;2023-03-01T01:02:25;2.70;99.90
25504;DHT22;13410;52.114;5.718;2023-03-01T01:04:50;2.80;99.90
25504;DHT22;13410;52.114;5.718;2023-03-01T01:07:16;2.80;99.90
25504;DHT22;13410;52.114;5.718;2023-03-01T01:09:42;2.80;99.90
25504;DHT22;13410;52.114;5.718;2023-03-01T01:12:08;2.90;99.90
25504;DHT22;13410;52.114;5.718;2023-03-01T01:14:34;2.90;99.90
25504;DHT22;13410;52.114;5.718;2023-03-01T01:16:59;2.80;99.90
25504;DHT22;13410;52.114;5.718;2023-03-01T01:19:25;2.80;99.90
25504;DHT22;13410;52.114;5.718;2023-03-01T01:21:51;2.70;99.90
25504;DHT22;13410;52.114;5.718;2023-03-01T01:24:17;2.70;99.90
25504;DHT22;13410;52.114;5.718;2023-03-01T01:26:43;2.70;99.90
25504;DHT22;13410;52.114;5.718;2023-03-01T01:29:10;2.70;99.90
25504;DHT22;13410;52.114;5.718;2023-03-01T01:31:37;2.80;99.90
25504;DHT22;13410;52.114;5.718;2023-03-01T01:34:05;2.70;99.90
25504;DHT22;13410;52.114;5.718;2023-03-01T01:36:32;2.70;99.90
25504;DHT22;13410;52.114;5.718;2023-03-01T01:38:58;2.60;99.90
25504;DHT22;13410;52.114;5.718;2023-03-01T01:41:25;2.60;99.90
25504;DHT22;13410;52.114;5.718;2023-03-01T01:46:59;2.60;99.90
25504;DHT22;13410;52.114;5.718;2023-03-01T01:52:14;2.60;99.90
25504;DHT22;13410;52.114;5.718;2023-03-01T01:54:54;2.50;99.90
25504;DHT22;13410;52.114;5.718;2023-03-01T01:57:41;2.60;99.90
25504;DHT22;13410;52.114;5.718;2023-03-01T02:02:36;2.60;99.90
25504;DHT22;13410;52.114;5.718;2023-03-01T02:07:53;2.60;99.90
25504;DHT22;13410;52.114;5.718;2023-03-01T02:10:20;2.60;99.90
25504;DHT22;13410;52.114;5.718;2023-03-01T02:12:46;2.40;99.90
25504;DHT22;13410;52.114;5.718;2023-03-01T02:15:12;2.50;99.90
25504;DHT22;13410;52.114;5.718;2023-03-01T02:17:37;2.50;99.90
25504;DHT22;13410;52.114;5.718;2023-03-01T02:22:34;2.50;99.90
25504;DHT22;13410;52.114;5.718;2023-03-01T02:25:31;2.50;99.90
25504;DHT22;13410;52.114;5.718;2023-03-01T02:30:45;2.50;99.90
25504;DHT22;13410;52.114;5.718;2023-03-01T02:33:32;2.40;99.90
25504;DHT22;13410;52.114;5.718;2023-03-01T02:36:06;2.40;99.90
25504;DHT22;13410;52.114;5.718;2023-03-01T02:38:33;2.40;99.90
25504;DHT22;13410;52.114;5.718;2023-03-01T02:40:59;2.30;99.90
25504;DHT22;13410;52.114;5.718;2023-03-01T02:43:30;2.30;99.90
25504;DHT22;13410;52.114;5.718;2023-03-01T02:46:03;2.30;99.90
25504;DHT22;13410;52.114;5.718;2023-03-01T02:48:43;2.30;99.90
25504;DHT22;13410;52.114;5.718;2023-03-01T02:51:21;2.30;99.90
25504;DHT22;13410;52.114;5.718;2023-03-01T02:54:08;2.20;99.90
25504;DHT22;13410;52.114;5.718;2023-03-01T02:56:35;2.20;99.90
25504;DHT22;13410;52.114;5.718;2023-03-01T02:59:02;2.30;99.90
25504;DHT22;13410;52.114;5.718;2023-03-01T03:01:29;2.10;99.90
25504;DHT22;13410;52.114;5.718;2023-03-01T03:04:10;2.10;99.90
25504;DHT22;13410;52.114;5.718;2023-03-01T03:06:36;2.10;99.90
25504;DHT22;13410;52.114;5.718;2023-03-01T03:09:03;2.10;99.90
25504;DHT22;13410;52.114;5.718;2023-03-01T03:11:29;2.10;99.90
25504;DHT22;13410;52.114;5.718;2023-03-01T03:13:55;2.10;99.90
25504;DHT22;13410;52.114;5.718;2023-03-01T03:16:22;2.10;99.90
25504;DHT22;13410;52.114;5.718;2023-03-01T03:18:48;2.10;99.90
25504;DHT22;13410;52.114;5.718;2023-03-01T03:21:14;2.10;99.90
25504;DHT22;13410;52.114;5.718;2023-03-01T03:23:40;2.10;99.90
25504;DHT22;13410;52.114;5.718;2023-03-01T03:26:05;2.00;99.90
25504;DHT22;13410;52.114;5.718;2023-03-01T03:28:32;2.00;99.90
25504;DHT22;13410;52.114;5.718;2023-03-01T03:30:58;1.90;99.90
25504;DHT22;13410;52.114;5.718;2023-03-01T03:33:29;1.90;99.90
25504;DHT22;13410;52.114;5.718;2023-03-01T03:35:55;1.90;99.90
25504;DHT22;13410;52.114;5.718;2023-03-01T03:38:20;1.90;99.90
25504;DHT22;13410;52.114;5.718;2023-03-01T03:41:00;1.90;99.90
25504;DHT22;13410;52.114;5.718;2023-03-01T03:43:28;1.90;99.90
25504;DHT22;13410;52.114;5.718;2023-03-01T03:45:54;1.90;99.90
25504;DHT22;13410;52.114;5.718;2023-03-01T03:48:22;1.80;99.90
25504;DHT22;13410;52.114;5.718;2023-03-01T03:50:53;1.80;99.90
25504;DHT22;13410;52.114;5.718;2023-03-01T03:53:20;1.80;99.90
25504;DHT22;13410;52.114;5.718;2023-03-01T03:55:46;1.80;99.90
25504;DHT22;13410;52.114;5.718;2023-03-01T03:58:15;1.80;99.90
25504;DHT22;13410;52.114;5.718;2023-03-01T04:00:44;1.80;99.90
25504;DHT22;13410;52.114;5.718;2023-03-01T04:03:11;1.70;99.90
25504;DHT22;13410;52.114;5.718;2023-03-01T04:05:38;1.70;99.90
25504;DHT22;13410;52.114;5.718;2023-03-01T04:08:04;1.80;99.90
25504;DHT22;13410;52.114;5.718;2023-03-01T04:10:39;1.60;99.90
25504;DHT22;13410;52.114;5.718;2023-03-01T04:13:07;1.70;99.90
25504;DHT22;13410;52.114;5.718;2023-03-01T04:15:33;1.60;99.90
25504;DHT22;13410;52.114;5.718;2023-03-01T04:17:59;1.60;99.90
25504;DHT22;13410;52.114;5.718;2023-03-01T04:20:28;1.60;99.90
25504;DHT22;13410;52.114;5.718;2023-03-01T04:23:02;1.70;99.90
25504;DHT22;13410;52.114;5.718;2023-03-01T04:25:58;1.60;99.90
25504;DHT22;13410;52.114;5.718;2023-03-01T04:28:26;1.60;99.90
25504;DHT22;13410;52.114;5.718;2023-03-01T04:30:57;1.50;99.90
25504;DHT22;13410;52.114;5.718;2023-03-01T04:33:24;1.60;99.90
25504;DHT22;13410;52.114;5.718;2023-03-01T04:35:50;1.60;99.90
25504;DHT22;13410;52.114;5.718;2023-03-01T04:38:16;1.60;99.90
25504;DHT22;13410;52.114;5.718;2023-03-01T04:40:42;1.60;99.90
25504;DHT22;13410;52.114;5.718;2023-03-01T04:43:09;1.50;99.90
25504;DHT22;13410;52.114;5.718;2023-03-01T04:45:35;1.60;99.90
25504;DHT22;13410;52.114;5.718;2023-03-01T04:48:02;1.60;99.90
25504;DHT22;13410;52.114;5.718;2023-03-01T04:50:28;1.60;99.90
25504;DHT22;13410;52.114;5.718;2023-03-01T04:52:55;1.50;99.90
25504;DHT22;13410;52.114;5.718;2023-03-01T04:55:26;1.50;99.90
25504;DHT22;13410;52.114;5.718;2023-03-01T04:57:52;1.60;99.90
25504;DHT22;13410;52.114;5.718;2023-03-01T05:00:19;1.60;99.90
25504;DHT22;13410;52.114;5.718;2023-03-01T05:02:55;1.50;99.90
25504;DHT22;13410;52.114;5.718;2023-03-01T05:05:57;1.50;99.90
25504;DHT22;13410;52.114;5.718;2023-03-01T05:08:14;1.50;99.90
25504;DHT22;13410;52.114;5.718;2023-03-01T05:10:45;1.40;99.90
25504;DHT22;13410;52.114;5.718;2023-03-01T05:13:12;1.40;99.90
25504;DHT22;13410;52.114;5.718;2023-03-01T05:15:39;1.40;99.90
25504;DHT22;13410;52.114;5.718;2023-03-01T05:18:05;1.40;99.90
25504;DHT22;13410;52.114;5.718;2023-03-01T05:20:37;1.40;99.90
25504;DHT22;13410;52.114;5.718;2023-03-01T05:23:03;1.30;99.90
25504;DHT22;13410;52.114;5.718;2023-03-01T05:25:31;1.40;99.90
25504;DHT22;13410;52.114;5.718;2023-03-01T05:27:59;1.40;99.90
25504;DHT22;13410;52.114;5.718;2023-03-01T05:30:24;1.40;99.90
25504;DHT22;13410;52.114;5.718;2023-03-01T05:32:50;1.40;99.90
25504;DHT22;13410;52.114;5.718;2023-03-01T05:35:21;1.30;99.90
25504;DHT22;13410;52.114;5.718;2023-03-01T05:37:48;1.40;99.90
25504;DHT22;13410;52.114;5.718;2023-03-01T05:40:19;1.40;99.90
25504;DHT22;13410;52.114;5.718;2023-03-01T05:42:48;1.30;99.90
25504;DHT22;13410;52.114;5.718;2023-03-01T05:45:15;1.40;99.90
25504;DHT22;13410;52.114;5.718;2023-03-01T05:47:42;1.30;99.90
25504;DHT22;13410;52.114;5.718;2023-03-01T05:50:11;1.20;99.90
25504;DHT22;13410;52.114;5.718;2023-03-01T05:52:38;1.20;99.90
25504;DHT22;13410;52.114;5.718;2023-03-01T05:55:04;1.20;99.90
25504;DHT22;13410;52.114;5.718;2023-03-01T05:57:29;1.30;99.90
25504;DHT22;13410;52.114;5.718;2023-03-01T05:59:55;1.20;99.90
25504;DHT22;13410;52.114;5.718;2023-03-01T06:02:20;1.20;99.90
25504;DHT22;13410;52.114;5.718;2023-03-01T06:04:46;1.30;99.90
25504;DHT22;13410;52.114;5.718;2023-03-01T06:07:12;1.20;99.90
25504;DHT22;13410;52.114;5.718;2023-03-01T06:09:37;1.20;99.90
25504;DHT22;13410;52.114;5.718;2023-03-01T06:12:03;1.20;99.90
25504;DHT22;13410;52.114;5.718;2023-03-01T06:14:28;1.20;99.90
25504;DHT22;13410;52.114;5.718;2023-03-01T06:16:54;1.20;99.90
25504;DHT22;13410;52.114;5.718;2023-03-01T06:19:19;1.20;99.90
25504;DHT22;13410;52.114;5.718;2023-03-01T06:21:45;1.10;99.90
25504;DHT22;13410;52.114;5.718;2023-03-01T06:24:10;1.10;99.90
25504;DHT22;13410;52.114;5.718;2023-03-01T06:26:36;1.10;99.90
25504;DHT22;13410;52.114;5.718;2023-03-01T06:29:01;1.20;99.90
25504;DHT22;13410;52.114;5.718;2023-03-01T06:31:27;1.10;99.90
25504;DHT22;13410;52.114;5.718;2023-03-01T06:33:53;1.10;99.90
25504;DHT22;13410;52.114;5.718;2023-03-01T06:36:19;1.20;99.90
25504;DHT22;13410;52.114;5.718;2023-03-01T06:38:46;1.20;99.90
25504;DHT22;13410;52.114;5.718;2023-03-01T06:41:11;1.30;99.90
25504;DHT22;13410;52.114;5.718;2023-03-01T06:43:37;1.50;99.90
25504;DHT22;13410;52.114;5.718;2023-03-01T06:46:07;1.60;99.90
25504;DHT22;13410;52.114;5.718;2023-03-01T06:48:33;1.90;99.90
25504;DHT22;13410;52.114;5.718;2023-03-01T06:51:00;2.10;99.90
25504;DHT22;13410;52.114;5.718;2023-03-01T06:53:27;2.20;99.90
25504;DHT22;13410;52.114;5.718;2023-03-01T06:55:56;2.30;99.90
25504;DHT22;13410;52.114;5.718;2023-03-01T06:58:22;2.20;99.90
25504;DHT22;13410;52.114;5.718;2023-03-01T07:00:48;2.30;99.90
25504;DHT22;13410;52.114;5.718;2023-03-01T07:03:13;2.30;99.90
25504;DHT22;13410;52.114;5.718;2023-03-01T07:05:39;2.30;99.90
25504;DHT22;13410;52.114;5.718;2023-03-01T07:08:04;2.40;99.90
25504;DHT22;13410;52.114;5.718;2023-03-01T07:10:30;2.60;99.90
25504;DHT22;13410;52.114;5.718;2023-03-01T07:12:57;2.70;99.90
25504;DHT22;13410;52.114;5.718;2023-03-01T07:15:22;2.80;99.90
25504;DHT22;13410;52.114;5.718;2023-03-01T07:17:48;2.90;99.90
25504;DHT22;13410;52.114;5.718;2023-03-01T07:20:16;3.10;99.90
25504;DHT22;13410;52.114;5.718;2023-03-01T07:22:42;3.30;99.90
25504;DHT22;13410;52.114;5.718;2023-03-01T07:25:09;3.40;99.90
25504;DHT22;13410;52.114;5.718;2023-03-01T07:27:35;3.60;99.90
25504;DHT22;13410;52.114;5.718;2023-03-01T07:30:01;3.80;99.90
25504;DHT22;13410;52.114;5.718;2023-03-01T07:32:26;4.10;99.90
25504;DHT22;13410;52.114;5.718;2023-03-01T07:34:52;4.30;99.90
25504;DHT22;13410;52.114;5.718;2023-03-01T07:37:17;4.50;99.90
25504;DHT22;13410;52.114;5.718;2023-03-01T07:39:43;4.50;99.90
25504;DHT22;13410;52.114;5.718;2023-03-01T07:42:08;4.50;99.90
25504;DHT22;13410;52.114;5.718;2023-03-01T07:44:34;4.40;99.90
25504;DHT22;13410;52.114;5.718;2023-03-01T07:47:00;4.40;99.90
25504;DHT22;13410;52.114;5.718;2023-03-01T07:49:25;4.40;99.90
25504;DHT22;13410;52.114;5.718;2023-03-01T07:51:54;4.30;99.90
25504;DHT22;13410;52.114;5.718;2023-03-01T07:54:20;4.10;99.90
25504;DHT22;13410;52.114;5.718;2023-03-01T07:56:45;4.10;99.90
25504;DHT22;13410;52.114;5.718;2023-03-01T07:59:11;4.10;99.90
25504;DHT22;13410;52.114;5.718;2023-03-01T08:01:37;4.10;99.90
25504;DHT22;13410;52.114;5.718;2023-03-01T08:04:02;4.30;99.90
25504;DHT22;13410;52.114;5.718;2023-03-01T08:06:30;4.40;99.90
25504;DHT22;13410;52.114;5.718;2023-03-01T08:08:56;4.50;99.90
25504;DHT22;13410;52.114;5.718;2023-03-01T08:11:21;4.70;99.90
25504;DHT22;13410;52.114;5.718;2023-03-01T08:13:48;4.80;99.90
25504;DHT22;13410;52.114;5.718;2023-03-01T08:16:15;4.80;99.90
25504;DHT22;13410;52.114;5.718;2023-03-01T08:18:41;4.90;99.90
25504;DHT22;13410;52.114;5.718;2023-03-01T08:21:13;5.10;99.90
25504;DHT22;13410;52.114;5.718;2023-03-01T08:23:39;5.20;99.90
25504;DHT22;13410;52.114;5.718;2023-03-01T08:26:16;5.40;99.90
25504;DHT22;13410;52.114;5.718;2023-03-01T08:28:42;5.50;99.90
25504;DHT22;13410;52.114;5.718;2023-03-01T08:31:21;5.60;99.90
25504;DHT22;13410;52.114;5.718;2023-03-01T08:33:49;5.70;99.90
25504;DHT22;13410;52.114;5.718;2023-03-01T08:36:16;5.80;99.90
25504;DHT22;13410;52.114;5.718;2023-03-01T08:38:42;5.90;99.90
25504;DHT22;13410;52.114;5.718;2023-03-01T08:41:08;5.90;99.90
25504;DHT22;13410;52.114;5.718;2023-03-01T08:43:33;6.00;99.90
25504;DHT22;13410;52.114;5.718;2023-03-01T08:45:59;6.10;99.90
25504;DHT22;13410;52.114;5.718;2023-03-01T08:48:25;6.30;99.90
25504;DHT22;13410;52.114;5.718;2023-03-01T08:50:50;6.20;99.90
25504;DHT22;13410;52.114;5.718;2023-03-01T08:53:16;6.30;99.90
25504;DHT22;13410;52.114;5.718;2023-03-01T08:55:41;6.40;99.90
25504;DHT22;13410;52.114;5.718;2023-03-01T08:58:07;6.50;99.90
25504;DHT22;13410;52.114;5.718;2023-03-01T09:00:32;6.60;99.90
25504;DHT22;13410;52.114;5.718;2023-03-01T09:03:00;6.70;99.90
25504;DHT22;13410;52.114;5.718;2023-03-01T09:05:26;6.80;99.90
25504;DHT22;13410;52.114;5.718;2023-03-01T09:07:51;7.00;99.90
25504;DHT22;13410;52.114;5.718;2023-03-01T09:10:17;7.00;99.90
25504;DHT22;13410;52.114;5.718;2023-03-01T09:12:42;6.90;99.90
25504;DHT22;13410;52.114;5.718;2023-03-01T09:15:08;7.10;99.90
25504;DHT22;13410;52.114;5.718;2023-03-01T09:17:34;7.10;99.90
25504;DHT22;13410;52.114;5.718;2023-03-01T09:20:00;7.30;99.90
25504;DHT22;13410;52.114;5.718;2023-03-01T09:22:25;7.50;99.90
25504;DHT22;13410;52.114;5.718;2023-03-01T09:24:51;7.60;99.90
25504;DHT22;13410;52.114;5.718;2023-03-01T09:27:16;7.60;99.90
25504;DHT22;13410;52.114;5.718;2023-03-01T09:29:44;7.60;99.90
25504;DHT22;13410;52.114;5.718;2023-03-01T09:32:10;7.80;99.90
25504;DHT22;13410;52.114;5.718;2023-03-01T09:34:36;7.70;99.90
25504;DHT22;13410;52.114;5.718;2023-03-01T09:37:21;7.60;99.90
25504;DHT22;13410;52.114;5.718;2023-03-01T09:39:47;7.70;99.90
25504;DHT22;13410;52.114;5.718;2023-03-01T09:42:13;7.70;99.90
25504;DHT22;13410;52.114;5.718;2023-03-01T09:44:50;7.70;99.90
25504;DHT22;13410;52.114;5.718;2023-03-01T09:47:19;7.70;99.90
25504;DHT22;13410;52.114;5.718;2023-03-01T09:49:54;7.50;99.90
25504;DHT22;13410;52.114;5.718;2023-03-01T10:04:25;7.70;99.90
25504;DHT22;13410;52.114;5.718;2023-03-01T10:09:37;7.50;99.90
25504;DHT22;13410;52.114;5.718;2023-03-01T10:12:15;7.50;99.90
25504;DHT22;13410;52.114;5.718;2023-03-01T10:15:15;7.40;99.90
25504;DHT22;13410;52.114;5.718;2023-03-01T10:17:46;7.40;99.90
25504;DHT22;13410;52.114;5.718;2023-03-01T10:20:20;7.40;99.90
25504;DHT22;13410;52.114;5.718;2023-03-01T10:22:46;7.70;99.90
25504;DHT22;13410;52.114;5.718;2023-03-01T10:28:26;7.80;99.90
25504;DHT22;13410;52.114;5.718;2023-03-01T10:30:57;7.90;99.90
25504;DHT22;13410;52.114;5.718;2023-03-01T10:33:35;7.90;99.90
25504;DHT22;13410;52.114;5.718;2023-03-01T10:36:02;7.90;99.90
25504;DHT22;13410;52.114;5.718;2023-03-01T10:38:31;7.90;99.90
25504;DHT22;13410;52.114;5.718;2023-03-01T10:41:11;8.10;99.90
25504;DHT22;13410;52.114;5.718;2023-03-01T10:43:49;8.30;99.90
25504;DHT22;13410;52.114;5.718;2023-03-01T10:49:16;8.50;99.90
25504;DHT22;13410;52.114;5.718;2023-03-01T10:51:52;8.50;99.90
25504;DHT22;13410;52.114;5.718;2023-03-01T10:54:30;8.60;99.90
25504;DHT22;13410;52.114;5.718;2023-03-01T10:57:00;8.50;99.90
25504;DHT22;13410;52.114;5.718;2023-03-01T10:59:32;8.40;99.90
25504;DHT22;13410;52.114;5.718;2023-03-01T11:02:26;8.20;99.90
25504;DHT22;13410;52.114;5.718;2023-03-01T11:05:02;8.30;99.90
25504;DHT22;13410;52.114;5.718;2023-03-01T11:07:28;8.30;99.90
25504;DHT22;13410;52.114;5.718;2023-03-01T11:09:54;8.50;99.90
25504;DHT22;13410;52.114;5.718;2023-03-01T11:12:21;8.50;99.90
25504;DHT22;13410;52.114;5.718;2023-03-01T11:14:55;8.50;99.90
25504;DHT22;13410;52.114;5.718;2023-03-01T11:17:30;8.60;99.90
25504;DHT22;13410;52.114;5.718;2023-03-01T11:20:18;8.70;99.90
25504;DHT22;13410;52.114;5.718;2023-03-01T11:22:54;8.80;99.90
25504;DHT22;13410;52.114;5.718;2023-03-01T11:25:24;8.70;99.90
25504;DHT22;13410;52.114;5.718;2023-03-01T11:27:52;8.90;99.90
25504;DHT22;13410;52.114;5.718;2023-03-01T11:30:23;8.80;99.90
25504;DHT22;13410;52.114;5.718;2023-03-01T11:33:08;8.90;99.90
25504;DHT22;13410;52.114;5.718;2023-03-01T11:35:42;8.90;99.90
25504;DHT22;13410;52.114;5.718;2023-03-01T11:38:21;8.70;99.90
25504;DHT22;13410;52.114;5.718;2023-03-01T11:40:54;8.90;99.90
25504;DHT22;13410;52.114;5.718;2023-03-01T11:43:47;8.90;99.90
25504;DHT22;13410;52.114;5.718;2023-03-01T11:49:30;9.30;99.90
25504;DHT22;13410;52.114;5.718;2023-03-01T11:55:40;9.10;99.90
25504;DHT22;13410;52.114;5.718;2023-03-01T12:06:20;8.80;99.90
25504;DHT22;13410;52.114;5.718;2023-03-01T12:22:59;9.60;99.90
25504;DHT22;13410;52.114;5.718;2023-03-01T12:25:33;9.60;99.90
25504;DHT22;13410;52.114;5.718;2023-03-01T12:31:29;9.60;99.90
25504;DHT22;13410;52.114;5.718;2023-03-01T12:37:26;9.70;99.90
25504;DHT22;13410;52.114;5.718;2023-03-01T12:40:03;9.70;99.90
25504;DHT22;13410;52.114;5.718;2023-03-01T12:42:47;9.80;99.90
25504;DHT22;13410;52.114;5.718;2023-03-01T12:46:10;9.90;99.90
25504;DHT22;13410;52.114;5.718;2023-03-01T12:51:34;9.80;99.90
25504;DHT22;13410;52.114;5.718;2023-03-01T12:54:07;9.70;99.90
25504;DHT22;13410;52.114;5.718;2023-03-01T12:56:36;9.80;99.90
25504;DHT22;13410;52.114;5.718;2023-03-01T13:01:49;9.90;99.90
25504;DHT22;13410;52.114;5.718;2023-03-01T13:15:35;9.90;99.90
25504;DHT22;13410;52.114;5.718;2023-03-01T13:20:52;9.80;99.90
25504;DHT22;13410;52.114;5.718;2023-03-01T13:26:07;10.10;99.90
25504;DHT22;13410;52.114;5.718;2023-03-01T13:39:27;10.10;99.90
25504;DHT22;13410;52.114;5.718;2023-03-01T13:41:55;10.10;99.90
25504;DHT22;13410;52.114;5.718;2023-03-01T13:44:36;10.20;99.90
25504;DHT22;13410;52.114;5.718;2023-03-01T13:49:57;10.10;99.90
25504;DHT22;13410;52.114;5.718;2023-03-01T13:57:39;10.30;99.90
25504;DHT22;13410;52.114;5.718;2023-03-01T14:00:30;10.50;99.90
25504;DHT22;13410;52.114;5.718;2023-03-01T14:03:02;10.60;99.90
25504;DHT22;13410;52.114;5.718;2023-03-01T14:05:29;10.50;99.90
25504;DHT22;13410;52.114;5.718;2023-03-01T14:07:55;10.70;99.90
25504;DHT22;13410;52.114;5.718;2023-03-01T14:10:21;10.60;99.90
25504;DHT22;13410;52.114;5.718;2023-03-01T14:12:55;10.70;99.90
25504;DHT22;13410;52.114;5.718;2023-03-01T14:15:40;10.60;99.90
25504;DHT22;13410;52.114;5.718;2023-03-01T14:18:20;10.50;99.90
25504;DHT22;13410;52.114;5.718;2023-03-01T14:20:47;10.60;99.90
25504;DHT22;13410;52.114;5.718;2023-03-01T14:23:20;10.80;99.90
25504;DHT22;13410;52.114;5.718;2023-03-01T14:25:48;10.70;99.90
25504;DHT22;13410;52.114;5.718;2023-03-01T14:28:25;10.70;99.90
25504;DHT22;13410;52.114;5.718;2023-03-01T14:30:54;10.50;99.90
25504;DHT22;13410;52.114;5.718;2023-03-01T14:33:33;10.40;99.90
25504;DHT22;13410;52.114;5.718;2023-03-01T14:36:09;10.40;99.90
25504;DHT22;13410;52.114;5.718;2023-03-01T14:38:38;10.50;99.90
25504;DHT22;13410;52.114;5.718;2023-03-01T14:41:08;10.40;99.90
25504;DHT22;13410;52.114;5.718;2023-03-01T14:43:35;10.60;99.90
25504;DHT22;13410;52.114;5.718;2023-03-01T14:46:02;10.70;99.90
25504;DHT22;13410;52.114;5.718;2023-03-01T14:48:28;10.50;99.90
25504;DHT22;13410;52.114;5.718;2023-03-01T14:50:55;10.60;99.90
25504;DHT22;13410;52.114;5.718;2023-03-01T14:53:27;10.70;99.90
25504;DHT22;13410;52.114;5.718;2023-03-01T14:56:00;10.80;99.90
25504;DHT22;13410;52.114;5.718;2023-03-01T14:58:31;10.70;99.90
25504;DHT22;13410;52.114;5.718;2023-03-01T15:01:00;10.60;99.90
25504;DHT22;13410;52.114;5.718;2023-03-01T15:03:32;10.50;99.90
25504;DHT22;13410;52.114;5.718;2023-03-01T15:06:01;10.60;99.90
25504;DHT22;13410;52.114;5.718;2023-03-01T15:08:27;10.70;99.90
25504;DHT22;13410;52.114;5.718;2023-03-01T15:13:53;10.80;99.90
25504;DHT22;13410;52.114;5.718;2023-03-01T15:16:26;10.80;99.90
25504;DHT22;13410;52.114;5.718;2023-03-01T15:18:58;10.80;99.90
25504;DHT22;13410;52.114;5.718;2023-03-01T15:21:27;10.70;99.90
25504;DHT22;13410;52.114;5.718;2023-03-01T15:24:08;10.60;99.90
25504;DHT22;13410;52.114;5.718;2023-03-01T15:27:05;10.70;99.90
25504;DHT22;13410;52.114;5.718;2023-03-01T15:29:34;10.80;99.90
25504;DHT22;13410;52.114;5.718;2023-03-01T15:34:57;11.10;99.90
25504;DHT22;13410;52.114;5.718;2023-03-01T15:40:24;10.90;99.90
25504;DHT22;13410;52.114;5.718;2023-03-01T15:43:04;11.00;99.90
25504;DHT22;13410;52.114;5.718;2023-03-01T15:45:31;10.90;99.90
25504;DHT22;13410;52.114;5.718;2023-03-01T15:48:02;10.90;99.90
25504;DHT22;13410;52.114;5.718;2023-03-01T15:50:32;10.90;99.90
25504;DHT22;13410;52.114;5.718;2023-03-01T15:52:59;10.80;99.90
25504;DHT22;13410;52.114;5.718;2023-03-01T15:55:30;10.60;99.90
25504;DHT22;13410;52.114;5.718;2023-03-01T15:58:19;10.20;99.90
25504;DHT22;13410;52.114;5.718;2023-03-01T16:00:47;10.20;99.90
25504;DHT22;13410;52.114;5.718;2023-03-01T16:03:14;10.10;99.90
25504;DHT22;13410;52.114;5.718;2023-03-01T16:05:48;10.10;99.90
25504;DHT22;13410;52.114;5.718;2023-03-01T16:08:14;10.10;99.90
25504;DHT22;13410;52.114;5.718;2023-03-01T16:10:41;10.30;99.90
25504;DHT22;13410;52.114;5.718;2023-03-01T16:13:09;10.40;99.90
25504;DHT22;13410;52.114;5.718;2023-03-01T16:15:35;10.60;99.90
25504;DHT22;13410;52.114;5.718;2023-03-01T16:18:01;10.60;99.90
25504;DHT22;13410;52.114;5.718;2023-03-01T16:20:28;10.70;99.90
25504;DHT22;13410;52.114;5.718;2023-03-01T16:22:56;10.60;99.90
25504;DHT22;13410;52.114;5.718;2023-03-01T16:25:23;10.70;99.90
25504;DHT22;13410;52.114;5.718;2023-03-01T16:27:50;10.70;99.90
25504;DHT22;13410;52.114;5.718;2023-03-01T16:30:18;10.60;99.90
25504;DHT22;13410;52.114;5.718;2023-03-01T16:32:45;10.60;99.90
25504;DHT22;13410;52.114;5.718;2023-03-01T16:35:13;10.50;99.90
25504;DHT22;13410;52.114;5.718;2023-03-01T16:37:40;10.20;99.90
25504;DHT22;13410;52.114;5.718;2023-03-01T16:40:15;10.00;99.90
25504;DHT22;13410;52.114;5.718;2023-03-01T16:42:42;10.00;99.90
25504;DHT22;13410;52.114;5.718;2023-03-01T16:45:08;10.10;99.90
25504;DHT22;13410;52.114;5.718;2023-03-01T16:47:34;10.20;99.90
25504;DHT22;13410;52.114;5.718;2023-03-01T16:50:00;10.20;99.90
25504;DHT22;13410;52.114;5.718;2023-03-01T16:52:26;10.30;99.90
25504;DHT22;13410;52.114;5.718;2023-03-01T16:54:52;10.20;99.90
25504;DHT22;13410;52.114;5.718;2023-03-01T16:57:18;10.20;99.90
25504;DHT22;13410;52.114;5.718;2023-03-01T16:59:43;10.10;99.90
25504;DHT22;13410;52.114;5.718;2023-03-01T17:02:11;9.90;99.90
25504;DHT22;13410;52.114;5.718;2023-03-01T17:04:38;9.80;99.90
25504;DHT22;13410;52.114;5.718;2023-03-01T17:07:04;9.80;99.90
25504;DHT22;13410;52.114;5.718;2023-03-01T17:09:29;9.80;99.90
25504;DHT22;13410;52.114;5.718;2023-03-01T17:11:55;9.80;99.90
25504;DHT22;13410;52.114;5.718;2023-03-01T17:14:20;9.60;99.90
25504;DHT22;13410;52.114;5.718;2023-03-01T17:16:46;9.70;99.90
25504;DHT22;13410;52.114;5.718;2023-03-01T17:19:12;9.60;99.90
25504;DHT22;13410;52.114;5.718;2023-03-01T17:21:43;9.50;99.90
25504;DHT22;13410;52.114;5.718;2023-03-01T17:24:09;9.60;99.90
25504;DHT22;13410;52.114;5.718;2023-03-01T17:26:34;9.60;99.90
25504;DHT22;13410;52.114;5.718;2023-03-01T17:29:01;9.70;99.90
25504;DHT22;13410;52.114;5.718;2023-03-01T17:31:26;9.60;99.90
25504;DHT22;13410;52.114;5.718;2023-03-01T17:33:52;9.60;99.90
25504;DHT22;13410;52.114;5.718;2023-03-01T17:36:18;9.50;99.90
25504;DHT22;13410;52.114;5.718;2023-03-01T17:38:43;9.40;99.90
25504;DHT22;13410;52.114;5.718;2023-03-01T17:41:10;9.40;99.90
25504;DHT22;13410;52.114;5.718;2023-03-01T17:43:36;9.40;99.90
25504;DHT22;13410;52.114;5.718;2023-03-01T17:46:02;9.40;99.90
25504;DHT22;13410;52.114;5.718;2023-03-01T17:48:28;9.30;99.90
25504;DHT22;13410;52.114;5.718;2023-03-01T17:50:53;9.20;99.90
25504;DHT22;13410;52.114;5.718;2023-03-01T17:53:20;9.20;99.90
25504;DHT22;13410;52.114;5.718;2023-03-01T17:55:46;9.10;99.90
25504;DHT22;13410;52.114;5.718;2023-03-01T17:58:14;9.00;99.90